Aviation Digital Data Service (ADDS)

Output produced by TAFs form (0617 UTC 23 August 2017)
found at http://aviationweather.gov/adds/tafs/
 
KTUS 230520Z 2306/2406 16008KT P6SM SCT110 BKN200 
     FM232100 21008KT P6SM VCSH BKN070 BKN110 
     FM240200 17007KT P6SM SCT090 BKN140